Time;durP1;ratioP1;P1;durP2;ratioP2;P2;SDS_P1;SDS_P2;PMS_P1;PMS_P2;Temp;Humidity;BMP_temperature;BMP_pressure;BME280_temperature;BME280_humidity;BME280_pressure;Samples;Min_cycle;Max_cycle;Signal;HPM_P1;HPM_P2
2023/10/10 00:01:19;;;;;;;46.22;30.67;;;16.00;99.90;;;;;;5033162;28;20155;-63
2023/10/10 00:03:45;;;;;;;46.42;31.48;;;15.90;99.90;;;;;;5033589;28;20159;-63
2023/10/10 00:06:13;;;;;;;48.63;31.80;;;15.90;99.90;;;;;;5033442;28;20229;-63
2023/10/10 00:08:41;;;;;;;48.38;29.70;;;15.90;99.90;;;;;;5033544;28;20158;-63
2023/10/10 00:11:14;;;;;;;47.97;32.50;;;15.80;99.90;;;;;;5015579;28;20193;-63
2023/10/10 00:13:43;;;;;;;50.97;32.60;;;15.80;99.90;;;;;;5033968;28;20185;-63
2023/10/10 00:19:01;;;;;;;53.25;33.05;;;15.70;99.90;;;;;;5033431;28;20655;-63
2023/10/10 00:21:29;;;;;;;53.10;34.05;;;15.70;99.90;;;;;;5033513;28;20285;-63
2023/10/10 00:23:59;;;;;;;49.08;32.47;;;15.70;99.90;;;;;;5015588;28;20588;-63
2023/10/10 00:26:26;;;;;;;45.13;30.70;;;15.80;99.90;;;;;;5034279;28;20640;-63
2023/10/10 00:28:55;;;;;;;50.88;32.13;;;15.80;99.90;;;;;;5033478;28;20591;-62
2023/10/10 00:31:26;;;;;;;52.50;32.40;;;15.80;99.90;;;;;;5033148;28;20527;-64
2023/10/10 00:33:52;;;;;;;46.40;31.27;;;15.80;99.90;;;;;;5033148;28;20160;-63
2023/10/10 00:39:06;;;;;;;53.97;33.63;;;15.80;99.90;;;;;;5033179;28;20205;-61
2023/10/10 00:41:50;;;;;;;57.50;35.03;;;15.80;99.90;;;;;;5032956;28;20248;-63
2023/10/10 00:44:17;;;;;;;50.85;34.65;;;15.70;99.90;;;;;;5015302;28;20172;-63
2023/10/10 00:46:47;;;;;;;47.40;32.28;;;15.70;99.90;;;;;;5032835;28;20176;-63
2023/10/10 00:49:13;;;;;;;53.10;33.75;;;15.60;99.90;;;;;;5033249;28;20210;-63
2023/10/10 00:51:41;;;;;;;49.50;32.45;;;15.60;99.90;;;;;;5033264;28;20197;-63
2023/10/10 00:56:54;;;;;;;46.60;30.58;;;15.80;99.90;;;;;;5033028;28;20151;-63
2023/10/10 00:59:35;;;;;;;55.95;31.92;;;15.70;99.90;;;;;;5033452;28;20156;-62
2023/10/10 01:02:04;;;;;;;45.50;32.17;;;15.70;99.90;;;;;;5014931;28;20229;-62
2023/10/10 01:04:39;;;;;;;50.15;32.55;;;15.80;99.90;;;;;;5032932;28;20210;-62
2023/10/10 01:07:08;;;;;;;47.28;31.35;;;15.70;99.90;;;;;;5033755;28;20179;-62
2023/10/10 01:09:55;;;;;;;46.75;29.98;;;15.90;99.90;;;;;;5018761;28;20272;-62
2023/10/10 01:12:23;;;;;;;47.50;32.22;;;15.90;99.90;;;;;;5036710;28;20294;-62
2023/10/10 01:14:54;;;;;;;48.13;30.05;;;15.80;99.90;;;;;;5036239;28;20182;-63
2023/10/10 01:17:25;;;;;;;49.22;31.25;;;15.80;99.90;;;;;;5036497;28;20151;-62
2023/10/10 01:19:51;;;;;;;53.35;32.42;;;15.70;99.90;;;;;;5018649;28;20182;-62
2023/10/10 01:22:35;;;;;;;52.22;32.92;;;15.70;99.90;;;;;;5036460;28;20701;-62
2023/10/10 01:25:05;;;;;;;46.38;32.28;;;15.70;99.90;;;;;;5036627;28;20151;-62
2023/10/10 01:27:31;;;;;;;54.10;33.95;;;15.60;99.90;;;;;;5018583;28;20733;-62
2023/10/10 01:30:18;;;;;;;56.78;34.38;;;15.60;99.90;;;;;;5035989;28;20229;-62
2023/10/10 01:32:50;;;;;;;52.92;35.90;;;15.60;99.90;;;;;;5035688;28;20298;-62
2023/10/10 01:35:17;;;;;;;62.42;36.88;;;15.60;99.90;;;;;;5018317;28;20309;-63
2023/10/10 01:37:54;;;;;;;54.88;34.45;;;15.50;99.90;;;;;;5018534;28;20190;-63
2023/10/10 01:40:20;;;;;;;50.25;34.83;;;15.50;99.90;;;;;;5036001;28;20270;-63
2023/10/10 01:42:54;;;;;;;50.33;32.90;;;15.50;99.90;;;;;;5035857;28;20729;-63
2023/10/10 01:45:23;;;;;;;46.67;29.20;;;15.50;99.90;;;;;;5017969;28;20170;-63
2023/10/10 01:48:02;;;;;;;53.42;32.83;;;15.60;99.90;;;;;;5036105;28;20177;-63
2023/10/10 01:50:30;;;;;;;47.13;30.90;;;15.60;99.90;;;;;;5018119;28;20220;-63
2023/10/10 01:53:00;;;;;;;52.58;33.38;;;15.60;99.90;;;;;;5035652;28;20187;-63
2023/10/10 01:55:26;;;;;;;58.20;33.67;;;15.50;99.90;;;;;;5017905;28;20206;-63
2023/10/10 01:58:01;;;;;;;58.10;35.30;;;15.50;99.90;;;;;;5035709;28;20190;-63
2023/10/10 02:00:27;;;;;;;48.05;30.83;;;15.50;99.90;;;;;;5035446;28;20155;-63
2023/10/10 02:02:57;;;;;;;46.28;31.17;;;15.50;99.90;;;;;;5017672;28;20301;-63
2023/10/10 02:08:22;;;;;;;47.15;29.02;;;15.50;99.90;;;;;;5022778;28;20214;-63
2023/10/10 02:10:49;;;;;;;43.65;28.52;;;15.50;99.90;;;;;;5035423;28;20254;-63
2023/10/10 02:13:17;;;;;;;48.28;28.15;;;15.50;99.90;;;;;;5035314;28;20685;-63
2023/10/10 02:15:42;;;;;;;49.10;30.92;;;15.40;99.90;;;;;;5035218;28;20183;-63
2023/10/10 02:18:23;;;;;;;50.65;32.50;;;15.40;99.90;;;;;;5035631;28;20169;-63
2023/10/10 02:20:50;;;;;;;58.30;34.25;;;15.40;99.90;;;;;;5034694;28;20206;-63
2023/10/10 02:23:24;;;;;;;61.75;36.65;;;15.40;99.90;;;;;;5035067;28;20209;-63
2023/10/10 02:25:53;;;;;;;59.75;37.70;;;15.30;99.90;;;;;;5017451;28;20181;-63
2023/10/10 02:30:49;;;;;;;63.05;35.53;;;15.30;99.90;;;;;;5035201;28;20180;-62
2023/10/10 02:38:22;;;;;;;49.00;32.08;;;15.40;99.90;;;;;;5035346;28;20525;-63
2023/10/10 02:41:04;;;;;;;48.78;31.85;;;15.50;99.90;;;;;;5034998;28;20175;-62
2023/10/10 02:43:33;;;;;;;52.70;33.10;;;15.60;99.90;;;;;;5035120;28;20197;-62
2023/10/10 02:46:00;;;;;;;52.90;32.22;;;15.60;99.90;;;;;;5017482;28;20203;-62
2023/10/10 02:48:27;;;;;;;48.78;32.25;;;15.60;99.90;;;;;;5035158;28;20225;-62
2023/10/10 02:50:53;;;;;;;50.92;33.90;;;15.60;99.90;;;;;;5034730;28;20696;-63
2023/10/10 02:53:19;;;;;;;48.60;32.22;;;15.60;99.90;;;;;;5034646;28;20230;-62
2023/10/10 02:55:51;;;;;;;54.17;32.90;;;15.60;99.90;;;;;;5034677;28;20247;-63
2023/10/10 02:58:21;;;;;;;57.80;34.35;;;15.60;99.90;;;;;;5034850;28;20167;-63
2023/10/10 03:00:51;;;;;;;48.45;31.88;;;15.50;99.90;;;;;;5034283;28;20642;-62
2023/10/10 03:03:20;;;;;;;50.10;33.28;;;15.50;99.90;;;;;;5016608;28;20305;-63
2023/10/10 03:05:51;;;;;;;52.70;34.70;;;15.50;99.90;;;;;;5034540;28;20175;-63
2023/10/10 03:08:34;;;;;;;52.63;33.80;;;15.50;99.90;;;;;;5034957;28;20163;-63
2023/10/10 03:11:15;;;;;;;57.00;35.22;;;15.50;99.90;;;;;;5034425;28;20201;-63
2023/10/10 03:13:54;;;;;;;51.90;33.63;;;15.50;99.90;;;;;;5034856;28;20198;-63
2023/10/10 03:27:01;;;;;;;47.85;30.42;;;15.40;99.90;;;;;;5034143;28;20217;-63
2023/10/10 03:29:46;;;;;;;47.30;31.65;;;15.50;99.90;;;;;;5034438;28;20164;-63
2023/10/10 03:34:56;;;;;;;44.33;30.85;;;15.50;99.90;;;;;;5034385;28;20190;-63
2023/10/10 03:39:55;;;;;;;52.78;31.63;;;15.50;99.90;;;;;;5034644;28;20258;-63
2023/10/10 05:24:01;;;;;;;87.53;41.03;;;15.30;99.90;;;;;;5036735;28;20677;-63
2023/10/10 05:26:30;;;;;;;87.05;39.08;;;15.30;99.90;;;;;;5036649;28;20168;-63
2023/10/10 05:28:57;;;;;;;77.50;38.95;;;15.30;99.90;;;;;;5018480;28;20176;-63
2023/10/10 05:31:23;;;;;;;82.47;39.63;;;15.30;99.90;;;;;;5035993;28;20187;-64
2023/10/10 05:33:50;;;;;;;69.65;35.67;;;15.20;99.90;;;;;;5018435;28;20241;-63
2023/10/10 05:36:18;;;;;;;96.50;44.20;;;15.20;99.90;;;;;;5036665;28;20516;-64
2023/10/10 05:38:46;;;;;;;76.90;38.13;;;15.10;99.90;;;;;;5036354;28;20179;-62
2023/10/10 05:41:12;;;;;;;79.60;40.10;;;15.10;99.90;;;;;;5036046;28;20181;-63
2023/10/10 05:43:39;;;;;;;84.75;40.55;;;15.10;99.90;;;;;;5036039;28;20209;-63
2023/10/10 05:46:05;;;;;;;79.78;40.00;;;15.10;99.90;;;;;;5035897;28;20624;-63
2023/10/10 05:48:32;;;;;;;88.32;41.70;;;15.10;99.90;;;;;;5036488;28;20170;-63
2023/10/10 05:50:59;;;;;;;82.28;40.15;;;15.00;99.90;;;;;;5035912;28;20245;-63
2023/10/10 05:53:26;;;;;;;80.47;39.42;;;15.00;99.90;;;;;;5017391;28;20275;-63
2023/10/10 05:55:58;;;;;;;78.85;39.92;;;14.90;99.90;;;;;;5017440;28;20258;-63
2023/10/10 05:58:25;;;;;;;80.75;40.83;;;14.90;99.90;;;;;;5035677;28;20643;-63
2023/10/10 06:00:53;;;;;;;81.93;41.63;;;14.80;99.90;;;;;;5017846;28;20175;-63
2023/10/10 06:03:21;;;;;;;80.80;42.05;;;14.80;99.90;;;;;;5035485;28;20226;-63
2023/10/10 06:05:49;;;;;;;84.07;40.63;;;14.90;99.90;;;;;;5035814;28;20199;-62
2023/10/10 06:08:16;;;;;;;82.90;40.78;;;14.80;99.90;;;;;;5035875;28;20171;-62
2023/10/10 06:10:42;;;;;;;76.82;38.13;;;14.90;99.90;;;;;;5017727;28;20613;-62
2023/10/10 06:13:10;;;;;;;76.20;37.60;;;14.90;99.90;;;;;;5035904;28;20534;-62
2023/10/10 06:15:36;;;;;;;77.68;40.25;;;14.90;99.90;;;;;;5035189;28;20186;-62
2023/10/10 06:18:18;;;;;;;79.35;38.15;;;15.00;99.90;;;;;;5035332;28;20761;-62
2023/10/10 06:20:45;;;;;;;74.32;37.05;;;15.10;99.90;;;;;;5035334;28;20535;-62
2023/10/10 06:23:15;;;;;;;76.53;39.38;;;15.00;99.90;;;;;;5035107;28;20206;-62
2023/10/10 06:25:42;;;;;;;87.13;39.45;;;15.00;99.90;;;;;;5017441;28;20175;-62
2023/10/10 06:28:22;;;;;;;82.13;40.20;;;14.90;99.90;;;;;;5035368;28;20172;-62
2023/10/10 06:30:54;;;;;;;93.68;44.08;;;14.90;99.90;;;;;;5035099;28;20298;-61
2023/10/10 06:33:27;;;;;;;91.18;44.53;;;14.90;99.90;;;;;;5035242;28;20191;-61
2023/10/10 06:36:32;;;;;;;83.72;43.30;;;14.80;99.90;;;;;;5017318;28;20269;-61
2023/10/10 06:41:38;;;;;;;91.97;44.22;;;14.90;99.90;;;;;;5035122;28;20199;-62
2023/10/10 06:44:05;;;;;;;90.03;43.05;;;14.90;99.90;;;;;;5035089;28;20159;-61
2023/10/10 06:46:37;;;;;;;95.43;44.08;;;14.90;99.90;;;;;;5034527;28;20163;-61
2023/10/10 06:49:06;;;;;;;87.78;43.88;;;14.90;99.90;;;;;;5034740;28;20163;-61
2023/10/10 06:51:39;;;;;;;72.47;40.10;;;14.90;99.90;;;;;;5034671;28;20195;-61
2023/10/10 06:54:09;;;;;;;80.70;43.00;;;15.00;99.90;;;;;;5034784;28;20163;-62
2023/10/10 06:56:55;;;;;;;72.90;37.92;;;15.10;99.90;;;;;;5034841;28;20260;-61
2023/10/10 06:59:25;;;;;;;76.80;39.15;;;15.10;99.90;;;;;;5034823;28;20285;-61
2023/10/10 07:01:51;;;;;;;78.18;39.30;;;15.10;99.90;;;;;;5033903;28;20206;-61
2023/10/10 07:04:19;;;;;;;73.45;41.08;;;15.10;99.90;;;;;;5034965;28;20183;-61
2023/10/10 07:06:45;;;;;;;85.45;43.17;;;15.10;99.90;;;;;;5034291;28;20168;-61
2023/10/10 07:09:27;;;;;;;85.95;44.60;;;15.20;99.90;;;;;;5034785;28;20237;-62
2023/10/10 07:11:54;;;;;;;85.47;41.95;;;15.10;99.90;;;;;;5034542;28;20687;-61
2023/10/10 07:14:20;;;;;;;87.13;43.80;;;15.20;99.90;;;;;;5016424;28;20576;-61
2023/10/10 07:16:46;;;;;;;93.13;43.45;;;15.20;99.90;;;;;;5033983;28;20167;-61
2023/10/10 07:19:26;;;;;;;80.82;41.03;;;15.20;99.90;;;;;;5034418;28;20253;-62
2023/10/10 07:21:52;;;;;;;88.00;44.83;;;15.20;99.90;;;;;;5033989;28;20187;-61
2023/10/10 07:24:18;;;;;;;98.38;50.00;;;15.30;99.90;;;;;;5016568;28;20167;-61
2023/10/10 07:26:58;;;;;;;95.53;50.85;;;15.30;99.90;;;;;;5034303;28;20233;-61
2023/10/10 07:32:17;;;;;;;97.30;53.60;;;15.50;99.90;;;;;;5033918;28;20199;-61
2023/10/10 07:34:49;;;;;;;91.20;51.25;;;15.60;99.90;;;;;;5034239;28;20588;-62
2023/10/10 07:37:16;;;;;;;94.40;52.97;;;15.80;99.90;;;;;;5034163;28;20664;-61
2023/10/10 07:40:08;;;;;;;78.55;46.72;;;15.90;99.90;;;;;;5016014;28;20205;-61
2023/10/10 07:42:36;;;;;;;85.55;48.45;;;16.10;99.90;;;;;;5033898;28;20199;-61
2023/10/10 07:45:13;;;;;;;81.78;46.90;;;16.30;99.90;;;;;;5033970;28;20583;-61
2023/10/10 07:50:27;;;;;;;84.25;48.83;;;16.70;99.90;;;;;;5034628;28;20159;-62
2023/10/10 07:52:56;;;;;;;79.40;49.60;;;16.90;99.90;;;;;;5033555;28;20199;-61
2023/10/10 07:55:22;;;;;;;75.63;46.03;;;17.00;99.90;;;;;;5033604;28;20175;-61
2023/10/10 07:58:06;;;;;;;75.13;46.15;;;16.90;99.90;;;;;;5033666;28;20171;-61
2023/10/10 08:00:39;;;;;;;77.25;47.20;;;17.00;99.90;;;;;;5034655;28;20473;-61
2023/10/10 08:03:06;;;;;;;74.80;45.42;;;17.10;99.90;;;;;;5033231;28;20207;-62
2023/10/10 08:05:33;;;;;;;74.38;43.47;;;17.30;99.90;;;;;;5033529;28;20202;-61
2023/10/10 08:08:05;;;;;;;67.90;43.88;;;17.70;99.90;;;;;;5033624;28;20702;-61
2023/10/10 08:10:39;;;;;;;68.60;40.42;;;17.80;99.90;;;;;;5033890;28;20178;-61
2023/10/10 08:13:10;;;;;;;62.17;39.97;;;18.10;99.90;;;;;;5033304;28;20203;-61
2023/10/10 08:16:03;;;;;;;61.45;38.22;;;18.20;99.90;;;;;;5034126;28;20179;-61
2023/10/10 08:21:12;;;;;;;55.80;36.17;;;18.60;99.90;;;;;;5033505;28;20159;-62
2023/10/10 08:23:46;;;;;;;55.35;33.45;;;18.90;99.90;;;;;;5033393;28;20225;-62
2023/10/10 08:26:18;;;;;;;53.17;34.47;;;19.00;99.90;;;;;;5015366;28;20229;-62
2023/10/10 08:28:48;;;;;;;54.40;34.63;;;19.10;99.90;;;;;;5033103;28;20170;-61
2023/10/10 08:31:15;;;;;;;57.00;33.78;;;18.90;99.90;;;;;;5033156;28;20163;-61
2023/10/10 08:33:47;;;;;;;51.80;32.22;;;18.90;99.90;;;;;;5033515;28;20175;-62
2023/10/10 08:36:23;;;;;;;52.35;32.83;;;19.00;99.90;;;;;;5034337;28;20500;-61
2023/10/10 08:38:50;;;;;;;55.10;31.98;;;18.90;99.90;;;;;;5033469;28;20194;-62
2023/10/10 08:41:20;;;;;;;50.67;30.45;;;18.90;99.90;;;;;;5033050;28;20183;-61
2023/10/10 08:43:53;;;;;;;50.17;30.90;;;18.90;99.90;;;;;;5033929;28;20187;-61
2023/10/10 08:46:24;;;;;;;53.10;31.15;;;18.90;99.90;;;;;;5033266;28;20152;-62
2023/10/10 08:48:52;;;;;;;43.63;27.63;;;19.00;99.90;;;;;;5015586;28;20234;-62
2023/10/10 08:51:17;;;;;;;46.40;29.90;;;19.10;99.90;;;;;;5015622;28;20175;-61
2023/10/10 08:53:44;;;;;;;47.90;29.30;;;19.10;99.90;;;;;;5033216;28;20213;-61
2023/10/10 08:56:14;;;;;;;42.85;28.45;;;19.10;99.90;;;;;;5033400;28;20175;-61
2023/10/10 08:58:40;;;;;;;42.78;25.60;;;18.90;99.90;;;;;;5015482;28;20183;-61
2023/10/10 09:01:08;;;;;;;43.13;26.50;;;18.90;99.90;;;;;;5033164;28;20171;-61
2023/10/10 09:03:34;;;;;;;43.63;25.50;;;18.90;99.90;;;;;;5033173;28;20183;-61
2023/10/10 09:06:19;;;;;;;38.75;24.23;;;18.90;99.90;;;;;;5032981;28;20167;-61
2023/10/10 09:08:49;;;;;;;38.38;24.73;;;19.10;99.90;;;;;;5032938;28;20210;-61
2023/10/10 09:11:16;;;;;;;37.42;24.63;;;19.10;99.90;;;;;;5032770;28;20178;-61
2023/10/10 09:13:52;;;;;;;39.28;24.25;;;19.00;99.90;;;;;;5032735;28;20171;-61
2023/10/10 09:16:37;;;;;;;35.75;22.33;;;19.20;99.90;;;;;;5032537;28;20179;-61
2023/10/10 09:19:10;;;;;;;39.95;23.20;;;19.30;99.90;;;;;;5015054;28;20183;-61
2023/10/10 09:21:50;;;;;;;35.33;22.50;;;19.30;99.90;;;;;;5032788;28;20651;-61
2023/10/10 09:24:28;;;;;;;37.35;19.90;;;19.50;99.90;;;;;;5033007;28;20193;-61
2023/10/10 09:26:59;;;;;;;40.38;22.02;;;19.60;99.90;;;;;;5033020;28;20151;-61
2023/10/10 09:29:46;;;;;;;35.42;21.63;;;19.70;99.90;;;;;;5017200;28;20206;-61
2023/10/10 09:32:15;;;;;;;35.25;20.58;;;19.70;99.90;;;;;;5036277;28;20198;-61
2023/10/10 09:34:41;;;;;;;29.42;20.05;;;19.80;99.90;;;;;;5018444;28;20274;-61
2023/10/10 09:37:17;;;;;;;31.30;18.75;;;19.80;99.90;;;;;;5036223;28;20183;-61
2023/10/10 09:39:54;;;;;;;28.20;17.05;;;19.80;99.90;;;;;;5018313;28;20281;-61
2023/10/10 09:45:35;;;;;;;30.63;17.42;;;19.80;99.90;;;;;;4948575;28;20183;-61
2023/10/10 09:48:27;;;;;;;29.30;16.02;;;19.90;99.90;;;;;;5035908;28;20167;-61
2023/10/10 09:51:08;;;;;;;29.33;15.75;;;19.90;99.90;;;;;;5035266;28;20643;-61
2023/10/10 09:53:35;;;;;;;32.03;16.33;;;20.00;99.90;;;;;;5035997;28;20234;-61
2023/10/10 09:56:08;;;;;;;29.73;16.90;;;20.10;99.90;;;;;;5036283;28;20662;-61
2023/10/10 09:58:41;;;;;;;27.10;15.65;;;20.20;99.90;;;;;;5036108;28;20170;-61
2023/10/10 10:01:16;;;;;;;24.52;14.25;;;20.20;99.90;;;;;;5035933;28;20159;-62
2023/10/10 10:04:02;;;;;;;23.95;14.38;;;20.30;99.90;;;;;;5036168;28;20199;-61
2023/10/10 10:06:35;;;;;;;23.83;12.98;;;20.30;99.90;;;;;;5035913;28;20152;-61
2023/10/10 10:09:32;;;;;;;22.92;12.30;;;20.40;99.90;;;;;;5035824;28;20182;-61
2023/10/10 10:12:13;;;;;;;18.25;10.40;;;20.40;99.90;;;;;;5017660;28;20230;-61
2023/10/10 10:14:53;;;;;;;16.50;10.10;;;20.40;99.90;;;;;;5035422;28;20703;-61
2023/10/10 10:18:11;;;;;;;20.00;9.05;;;20.50;99.90;;;;;;5017426;28;20178;-61
2023/10/10 10:23:27;;;;;;;15.15;8.23;;;20.70;99.90;;;;;;5035250;28;20618;-62
2023/10/10 10:26:10;;;;;;;12.68;7.03;;;20.70;99.90;;;;;;5035186;28;20180;-62
2023/10/10 10:28:36;;;;;;;16.02;7.35;;;20.80;99.90;;;;;;5035230;28;20529;-62
2023/10/10 10:31:05;;;;;;;12.70;6.53;;;20.90;99.90;;;;;;5035397;28;20339;-62
2023/10/10 10:33:34;;;;;;;10.27;6.85;;;20.90;99.90;;;;;;5017099;28;20268;-62
2023/10/10 10:36:14;;;;;;;13.30;7.03;;;21.00;99.90;;;;;;5035079;28;20301;-62
2023/10/10 10:39:17;;;;;;;14.90;6.65;;;21.00;99.90;;;;;;5017266;28;20167;-63
2023/10/10 10:41:42;;;;;;;12.73;6.88;;;21.00;99.90;;;;;;5034165;28;20585;-62
2023/10/10 10:44:09;;;;;;;11.90;7.00;;;21.10;99.90;;;;;;5035144;28;20191;-62
2023/10/10 10:46:40;;;;;;;12.52;6.85;;;21.10;99.90;;;;;;5034607;28;20479;-62
2023/10/10 10:49:12;;;;;;;11.77;6.25;;;21.10;99.90;;;;;;5034951;28;20167;-62
2023/10/10 10:51:47;;;;;;;13.75;7.22;;;21.10;99.90;;;;;;5034803;28;20580;-63
2023/10/10 10:54:35;;;;;;;12.45;7.32;;;21.10;99.90;;;;;;5035305;28;20154;-62
2023/10/10 10:57:04;;;;;;;12.95;6.88;;;21.10;99.90;;;;;;5034645;28;20178;-63
2023/10/10 10:59:36;;;;;;;12.88;6.20;;;21.10;99.90;;;;;;5034924;28;20151;-63
2023/10/10 11:02:14;;;;;;;11.43;7.10;;;21.20;99.90;;;;;;5034218;28;20211;-62
2023/10/10 11:04:43;;;;;;;12.75;6.15;;;21.20;99.90;;;;;;5035147;28;20147;-62
2023/10/10 11:07:15;;;;;;;12.40;6.43;;;21.30;99.90;;;;;;5034614;28;20595;-63
2023/10/10 11:09:52;;;;;;;14.85;6.03;;;21.40;99.90;;;;;;5034595;28;20207;-62
2023/10/10 11:12:21;;;;;;;11.18;6.20;;;21.50;99.90;;;;;;5034680;28;20575;-62
2023/10/10 11:14:49;;;;;;;10.60;5.88;;;21.50;99.90;;;;;;5034639;28;20608;-62
2023/10/10 11:17:18;;;;;;;12.13;6.43;;;21.50;99.90;;;;;;5033942;28;20167;-62
2023/10/10 11:19:53;;;;;;;13.32;6.10;;;21.60;99.90;;;;;;5034698;28;20237;-62
2023/10/10 11:22:38;;;;;;;15.30;5.68;;;21.60;99.90;;;;;;5034141;28;20675;-62
2023/10/10 11:25:05;;;;;;;9.63;5.28;;;21.70;99.90;;;;;;5034420;28;20168;-62
2023/10/10 11:27:43;;;;;;;9.73;5.65;;;22.00;99.90;;;;;;5034646;28;20260;-62
2023/10/10 11:30:11;;;;;;;10.70;5.65;;;22.00;99.90;;;;;;5034437;28;20179;-63
2023/10/10 11:32:47;;;;;;;10.70;5.70;;;22.20;99.90;;;;;;5016707;28;20609;-62
2023/10/10 11:35:23;;;;;;;11.23;5.68;;;22.40;99.90;;;;;;5034231;28;20504;-62
2023/10/10 11:37:59;;;;;;;11.55;5.78;;;22.50;99.90;;;;;;5017093;28;20170;-62
2023/10/10 11:40:31;;;;;;;8.13;5.50;;;22.70;99.90;;;;;;5034346;28;20234;-62
2023/10/10 11:43:04;;;;;;;13.75;5.85;;;22.80;99.90;;;;;;5033743;28;20687;-62
2023/10/10 11:45:51;;;;;;;13.98;5.88;;;23.00;99.90;;;;;;5033880;28;20156;-62
2023/10/10 11:48:17;;;;;;;11.77;5.85;;;23.00;99.90;;;;;;5033609;28;20179;-62
2023/10/10 11:50:50;;;;;;;9.23;5.30;;;23.00;99.90;;;;;;5033633;28;20229;-62
2023/10/10 11:53:19;;;;;;;12.23;5.68;;;23.10;99.90;;;;;;5016199;28;20195;-63
2023/10/10 11:55:46;;;;;;;13.52;5.65;;;23.20;99.90;;;;;;5033594;28;20217;-62
2023/10/10 11:58:17;;;;;;;11.27;5.85;;;23.10;99.90;;;;;;5034142;28;20214;-63
2023/10/10 12:01:04;;;;;;;11.52;5.78;;;23.20;99.90;;;;;;5033613;28;20750;-62
2023/10/10 12:03:41;;;;;;;8.35;5.68;;;23.30;99.90;;;;;;5033307;28;20655;-62
2023/10/10 12:06:14;;;;;;;12.70;5.28;;;23.50;99.90;;;;;;5033771;28;20147;-62
2023/10/10 12:08:50;;;;;;;12.63;5.28;;;23.50;99.90;;;;;;5033741;28;20163;-62
2023/10/10 12:11:20;;;;;;;10.77;5.60;;;23.50;99.90;;;;;;5033435;28;20179;-62
2023/10/10 12:13:53;;;;;;;10.80;5.38;;;23.70;99.90;;;;;;5033375;28;20182;-63
2023/10/10 12:16:23;;;;;;;8.07;5.00;;;24.00;99.90;;;;;;5015734;28;20167;-62
2023/10/10 12:18:49;;;;;;;10.82;5.20;;;23.90;99.90;;;;;;5033252;28;20155;-62
2023/10/10 12:21:20;;;;;;;11.30;5.25;;;23.90;99.90;;;;;;5033507;28;20602;-62
2023/10/10 12:24:04;;;;;;;9.15;5.32;;;24.20;99.90;;;;;;5033210;28;20191;-63
2023/10/10 12:26:31;;;;;;;8.93;5.43;;;24.40;99.90;;;;;;5033291;28;20225;-63
2023/10/10 12:28:57;;;;;;;11.50;5.28;;;24.50;99.90;;;;;;5031973;28;20725;-63
2023/10/10 12:31:23;;;;;;;8.90;4.88;;;24.60;99.90;;;;;;5033116;28;20183;-63
2023/10/10 12:33:49;;;;;;;7.85;5.05;;;24.60;99.90;;;;;;5032952;28;20175;-63
2023/10/10 12:36:16;;;;;;;10.02;5.05;;;24.70;99.90;;;;;;5033168;28;20606;-63
2023/10/10 12:38:41;;;;;;;11.05;5.45;;;24.70;99.90;;;;;;5015411;28;20305;-63
2023/10/10 12:41:11;;;;;;;12.57;5.15;;;24.70;99.90;;;;;;5032950;28;20201;-63
2023/10/10 12:43:37;;;;;;;8.02;4.82;;;24.60;99.90;;;;;;5033026;28;20234;-63
2023/10/10 12:46:06;;;;;;;10.25;5.38;;;24.60;99.90;;;;;;5033373;28;20595;-63
2023/10/10 12:48:39;;;;;;;12.38;5.13;;;24.50;99.90;;;;;;5015057;28;20175;-63
2023/10/10 12:51:09;;;;;;;9.45;4.82;;;24.50;99.90;;;;;;5032954;28;20166;-63
2023/10/10 12:53:39;;;;;;;11.48;4.85;;;24.40;99.90;;;;;;5033009;28;20640;-63
2023/10/10 12:56:11;;;;;;;8.50;4.63;;;24.50;99.90;;;;;;5035020;28;20163;-63
2023/10/10 12:58:43;;;;;;;11.55;4.72;;;24.30;99.90;;;;;;5033810;28;20202;-62
2023/10/10 13:01:12;;;;;;;11.38;6.30;;;24.30;99.90;;;;;;5015424;28;20587;-63
2023/10/10 13:03:39;;;;;;;8.68;5.00;;;24.30;99.90;;;;;;5034140;28;20206;-63
2023/10/10 13:06:06;;;;;;;11.20;4.80;;;24.30;99.90;;;;;;5019365;28;20297;-64
2023/10/10 13:08:48;;;;;;;8.75;4.97;;;24.20;99.90;;;;;;5018964;28;20639;-63
2023/10/10 13:11:15;;;;;;;9.20;5.32;;;24.30;99.90;;;;;;5038063;28;20163;-63
2023/10/10 13:13:52;;;;;;;9.75;5.13;;;24.40;99.90;;;;;;5036835;28;20614;-63
2023/10/10 13:16:27;;;;;;;9.98;4.72;;;24.50;99.90;;;;;;5036603;28;20238;-63
2023/10/10 13:18:55;;;;;;;11.70;5.05;;;24.60;99.90;;;;;;5036398;28;20170;-63
2023/10/10 13:21:21;;;;;;;9.98;4.82;;;24.50;99.90;;;;;;5036424;28;20182;-63
2023/10/10 13:23:48;;;;;;;9.18;5.38;;;24.30;99.90;;;;;;5036352;28;20730;-63
2023/10/10 13:26:16;;;;;;;14.05;5.28;;;24.30;99.90;;;;;;5036389;28;20182;-63
2023/10/10 13:28:46;;;;;;;10.55;4.72;;;24.30;99.90;;;;;;5036371;28;20168;-63
2023/10/10 13:31:17;;;;;;;10.15;5.13;;;24.30;99.90;;;;;;5036234;28;20179;-63
2023/10/10 13:33:44;;;;;;;9.68;5.00;;;24.30;99.90;;;;;;5036029;28;20587;-63
2023/10/10 13:36:17;;;;;;;9.43;4.90;;;24.40;99.90;;;;;;5018542;28;20205;-63
2023/10/10 13:38:49;;;;;;;10.07;4.80;;;24.50;99.90;;;;;;5036271;28;20166;-63
2023/10/10 13:41:28;;;;;;;13.65;4.65;;;24.50;99.90;;;;;;5018366;28;20244;-64
2023/10/10 13:44:07;;;;;;;9.10;4.78;;;24.50;99.90;;;;;;5018894;28;20605;-63
2023/10/10 13:46:47;;;;;;;10.27;4.97;;;24.50;99.90;;;;;;5036772;28;20666;-63
2023/10/10 13:49:13;;;;;;;9.93;4.85;;;24.50;99.90;;;;;;5018534;28;20207;-63
2023/10/10 13:51:41;;;;;;;12.50;5.00;;;24.70;99.90;;;;;;5036434;28;20226;-64
2023/10/10 13:54:07;;;;;;;8.57;4.90;;;24.70;99.90;;;;;;5035639;28;20167;-65
2023/10/10 13:56:33;;;;;;;10.68;4.47;;;24.70;99.90;;;;;;5036437;28;20175;-64
2023/10/10 13:59:00;;;;;;;12.82;5.35;;;24.70;99.90;;;;;;5018623;28;20190;-64
2023/10/10 14:01:41;;;;;;;9.65;4.78;;;24.50;99.90;;;;;;5034766;28;20289;-61
2023/10/10 14:04:15;;;;;;;11.32;5.43;;;24.20;99.90;;;;;;5035747;28;20190;-63
2023/10/10 14:06:48;;;;;;;9.57;4.38;;;24.00;99.90;;;;;;5036471;28;20152;-63
2023/10/10 14:09:31;;;;;;;10.23;4.65;;;24.10;99.90;;;;;;5034554;28;20225;-63
2023/10/10 14:12:02;;;;;;;11.13;4.68;;;24.10;99.90;;;;;;5035845;28;20260;-62
2023/10/10 14:14:28;;;;;;;11.02;4.82;;;24.00;99.90;;;;;;5035071;28;20155;-63
2023/10/10 14:16:54;;;;;;;14.32;4.90;;;24.00;99.90;;;;;;5035241;28;20175;-62
2023/10/10 14:19:23;;;;;;;13.73;4.70;;;23.90;99.90;;;;;;5035083;28;20678;-62
2023/10/10 14:21:52;;;;;;;11.90;5.15;;;23.80;99.90;;;;;;5035365;28;20690;-62
2023/10/10 14:24:19;;;;;;;12.45;4.68;;;23.80;99.90;;;;;;5017619;28;20175;-62
2023/10/10 14:26:45;;;;;;;12.00;5.10;;;23.70;99.90;;;;;;5035645;28;20182;-62
2023/10/10 14:29:14;;;;;;;10.20;4.70;;;23.70;99.90;;;;;;5035279;28;20167;-62
2023/10/10 14:31:44;;;;;;;12.52;4.63;;;23.70;99.90;;;;;;5035436;28;20191;-63
2023/10/10 14:34:24;;;;;;;11.77;5.28;;;23.60;99.90;;;;;;5035032;28;20159;-63
2023/10/10 14:36:53;;;;;;;12.18;5.72;;;23.50;99.90;;;;;;5035416;28;20620;-63
2023/10/10 14:39:28;;;;;;;9.23;5.25;;;23.40;99.90;;;;;;5035196;28;20194;-62
2023/10/10 14:41:57;;;;;;;17.15;4.88;;;23.30;99.90;;;;;;5034962;28;20261;-62
2023/10/10 14:44:26;;;;;;;11.68;5.03;;;23.30;99.90;;;;;;5035012;28;20171;-63
2023/10/10 14:46:54;;;;;;;12.10;5.20;;;23.20;99.90;;;;;;5017167;28;20175;-62
2023/10/10 14:49:29;;;;;;;12.70;4.70;;;23.10;99.90;;;;;;5016917;28;20179;-62
2023/10/10 14:51:56;;;;;;;9.18;4.50;;;23.10;99.90;;;;;;5017940;28;20222;-63
2023/10/10 14:54:23;;;;;;;15.25;5.20;;;23.00;99.90;;;;;;5034795;28;20254;-63
2023/10/10 14:56:52;;;;;;;10.27;5.22;;;23.00;99.90;;;;;;5016939;28;20739;-61
2023/10/10 14:59:22;;;;;;;9.77;4.72;;;22.90;99.90;;;;;;5035211;28;20159;-63
2023/10/10 15:01:48;;;;;;;10.15;4.45;;;22.90;99.90;;;;;;5034748;28;20206;-62
2023/10/10 15:04:19;;;;;;;14.75;4.60;;;22.80;99.90;;;;;;5034222;28;20261;-62
2023/10/10 15:06:54;;;;;;;9.65;4.78;;;22.70;99.90;;;;;;5035533;28;20186;-63
2023/10/10 15:09:23;;;;;;;10.48;4.78;;;22.60;99.90;;;;;;5017243;28;20655;-63
2023/10/10 15:11:50;;;;;;;9.25;4.70;;;22.60;99.90;;;;;;5034684;28;20553;-64
2023/10/10 15:14:21;;;;;;;12.98;5.45;;;22.50;99.90;;;;;;5034344;28;20266;-63
2023/10/10 15:16:47;;;;;;;9.90;4.78;;;22.50;99.90;;;;;;5016449;28;20735;-63
2023/10/10 15:19:14;;;;;;;15.80;4.32;;;22.40;99.90;;;;;;5034002;28;20178;-63
2023/10/10 15:21:40;;;;;;;11.10;4.65;;;22.40;99.90;;;;;;5034306;28;20199;-62
2023/10/10 15:24:14;;;;;;;12.40;4.32;;;22.40;99.90;;;;;;5034115;28;20626;-62
2023/10/10 15:26:41;;;;;;;7.78;4.65;;;22.30;99.90;;;;;;5034210;28;20158;-62
2023/10/10 15:29:12;;;;;;;9.63;4.28;;;22.30;99.90;;;;;;5035272;28;20190;-62